Terminal Aerodrome Forecast
Issued by NWS Pueblo, CO

Home | Current Version | Previous Version | Text Only | Print | Product List | Glossary On
Versions: 1 2 3 4 5 6 7 8 9 10 11 12 13 14 15 16 17 18 19 20 21 22 23 24 25 26 27 28 29 30 31 32 33 34 35 36 37 38 39 40 41
000
FTUS45 KPUB 260528
TAFALS
TAF
KALS 260528Z 2606/2706 21014KT P6SM VCSH SCT020 BKN050
      TEMPO 2606/2609 21012G22KT 6SM -SHRASN BKN020
     FM260900 20010KT P6SM VCSH SCT015 BKN025
     FM261500 28009KT P6SM SCT020 BKN050
     FM261800 36010KT P6SM SCT060 SCT140=

USA.gov is the U.S. government's official web portal to all federal, state and local government web resources and services.